sensor_id;sensor_type;location;lat;lon;timestamp;P1;durP1;ratioP1;P2;durP2;ratioP2
14890;SDS011;7537;48.014;11.590;2022-12-11T00:00:49;30.06;;;20.30;;
14890;SDS011;7537;48.014;11.590;2022-12-11T00:06:18;33.15;;;21.40;;
14890;SDS011;7537;48.014;11.590;2022-12-11T00:11:46;34.14;;;21.69;;
14890;SDS011;7537;48.014;11.590;2022-12-11T00:17:13;32.65;;;18.49;;
14890;SDS011;7537;48.014;11.590;2022-12-11T00:22:41;28.50;;;19.98;;
14890;SDS011;7537;48.014;11.590;2022-12-11T00:28:13;29.78;;;18.79;;
14890;SDS011;7537;48.014;11.590;2022-12-11T00:33:42;26.86;;;18.61;;
14890;SDS011;7537;48.014;11.590;2022-12-11T00:39:09;27.99;;;17.84;;
14890;SDS011;7537;48.014;11.590;2022-12-11T00:44:37;27.72;;;19.03;;
14890;SDS011;7537;48.014;11.590;2022-12-11T00:50:05;29.15;;;18.44;;
14890;SDS011;7537;48.014;11.590;2022-12-11T00:55:36;26.45;;;19.56;;
14890;SDS011;7537;48.014;11.590;2022-12-11T01:01:07;28.31;;;19.52;;
14890;SDS011;7537;48.014;11.590;2022-12-11T01:06:36;24.38;;;16.34;;
14890;SDS011;7537;48.014;11.590;2022-12-11T01:12:04;25.37;;;16.44;;
14890;SDS011;7537;48.014;11.590;2022-12-11T01:17:31;26.70;;;18.56;;
14890;SDS011;7537;48.014;11.590;2022-12-11T01:22:59;21.95;;;16.01;;
14890;SDS011;7537;48.014;11.590;2022-12-11T01:28:30;24.60;;;17.14;;
14890;SDS011;7537;48.014;11.590;2022-12-11T01:33:57;22.66;;;16.60;;
14890;SDS011;7537;48.014;11.590;2022-12-11T01:39:26;23.07;;;16.71;;
14890;SDS011;7537;48.014;11.590;2022-12-11T01:45:19;20.01;;;15.59;;
14890;SDS011;7537;48.014;11.590;2022-12-11T01:50:49;24.97;;;16.94;;
14890;SDS011;7537;48.014;11.590;2022-12-11T01:56:18;24.91;;;16.24;;
14890;SDS011;7537;48.014;11.590;2022-12-11T02:01:47;24.74;;;16.53;;
14890;SDS011;7537;48.014;11.590;2022-12-11T02:07:16;26.33;;;16.95;;
14890;SDS011;7537;48.014;11.590;2022-12-11T02:12:47;22.05;;;14.65;;
14890;SDS011;7537;48.014;11.590;2022-12-11T02:18:21;30.72;;;17.62;;
14890;SDS011;7537;48.014;11.590;2022-12-11T02:24:03;19.48;;;13.71;;
14890;SDS011;7537;48.014;11.590;2022-12-11T02:29:38;22.76;;;16.21;;
14890;SDS011;7537;48.014;11.590;2022-12-11T02:35:09;22.00;;;15.24;;
14890;SDS011;7537;48.014;11.590;2022-12-11T02:40:39;21.99;;;14.97;;
14890;SDS011;7537;48.014;11.590;2022-12-11T02:46:07;22.57;;;16.69;;
14890;SDS011;7537;48.014;11.590;2022-12-11T02:51:38;24.49;;;15.61;;
14890;SDS011;7537;48.014;11.590;2022-12-11T02:57:07;22.10;;;16.03;;
14890;SDS011;7537;48.014;11.590;2022-12-11T03:02:35;24.24;;;15.33;;
14890;SDS011;7537;48.014;11.590;2022-12-11T03:08:03;20.02;;;15.85;;
14890;SDS011;7537;48.014;11.590;2022-12-11T03:13:31;23.90;;;16.24;;
14890;SDS011;7537;48.014;11.590;2022-12-11T03:19:00;20.88;;;14.98;;
14890;SDS011;7537;48.014;11.590;2022-12-11T03:24:32;19.52;;;13.87;;
14890;SDS011;7537;48.014;11.590;2022-12-11T03:30:10;21.23;;;15.44;;
14890;SDS011;7537;48.014;11.590;2022-12-11T03:35:38;24.72;;;15.69;;
14890;SDS011;7537;48.014;11.590;2022-12-11T03:41:09;20.02;;;14.85;;
14890;SDS011;7537;48.014;11.590;2022-12-11T03:46:38;19.46;;;15.24;;
14890;SDS011;7537;48.014;11.590;2022-12-11T03:52:07;23.33;;;15.06;;
14890;SDS011;7537;48.014;11.590;2022-12-11T03:57:37;22.30;;;14.62;;
14890;SDS011;7537;48.014;11.590;2022-12-11T04:03:04;20.01;;;14.27;;
14890;SDS011;7537;48.014;11.590;2022-12-11T04:08:31;20.60;;;14.06;;
14890;SDS011;7537;48.014;11.590;2022-12-11T04:13:58;20.78;;;12.47;;
14890;SDS011;7537;48.014;11.590;2022-12-11T04:19:26;19.49;;;13.85;;
14890;SDS011;7537;48.014;11.590;2022-12-11T04:24:53;19.73;;;14.06;;
14890;SDS011;7537;48.014;11.590;2022-12-11T04:30:25;17.62;;;12.98;;
14890;SDS011;7537;48.014;11.590;2022-12-11T04:35:53;15.43;;;12.02;;
14890;SDS011;7537;48.014;11.590;2022-12-11T04:41:20;13.51;;;11.73;;
14890;SDS011;7537;48.014;11.590;2022-12-11T04:46:47;15.31;;;11.26;;
14890;SDS011;7537;48.014;11.590;2022-12-11T04:52:15;19.12;;;12.91;;
14890;SDS011;7537;48.014;11.590;2022-12-11T04:57:43;18.52;;;11.94;;
14890;SDS011;7537;48.014;11.590;2022-12-11T05:03:11;17.11;;;12.44;;
14890;SDS011;7537;48.014;11.590;2022-12-11T05:08:40;18.61;;;14.12;;
14890;SDS011;7537;48.014;11.590;2022-12-11T05:14:07;17.08;;;11.89;;
14890;SDS011;7537;48.014;11.590;2022-12-11T05:19:34;17.90;;;12.90;;
14890;SDS011;7537;48.014;11.590;2022-12-11T05:25:02;15.63;;;12.04;;
14890;SDS011;7537;48.014;11.590;2022-12-11T05:30:33;18.06;;;13.28;;
14890;SDS011;7537;48.014;11.590;2022-12-11T05:36:02;22.36;;;14.31;;
14890;SDS011;7537;48.014;11.590;2022-12-11T05:41:29;20.89;;;13.77;;
14890;SDS011;7537;48.014;11.590;2022-12-11T05:46:57;19.84;;;13.32;;
14890;SDS011;7537;48.014;11.590;2022-12-11T05:52:24;19.06;;;14.22;;
14890;SDS011;7537;48.014;11.590;2022-12-11T05:57:52;21.73;;;13.88;;
14890;SDS011;7537;48.014;11.590;2022-12-11T06:03:19;23.90;;;15.31;;
14890;SDS011;7537;48.014;11.590;2022-12-11T06:08:49;20.53;;;13.82;;
14890;SDS011;7537;48.014;11.590;2022-12-11T06:14:16;23.07;;;15.35;;
14890;SDS011;7537;48.014;11.590;2022-12-11T06:19:44;23.64;;;16.04;;
14890;SDS011;7537;48.014;11.590;2022-12-11T06:25:11;20.64;;;14.61;;
14890;SDS011;7537;48.014;11.590;2022-12-11T06:30:42;20.47;;;13.84;;
14890;SDS011;7537;48.014;11.590;2022-12-11T06:36:10;19.18;;;12.37;;
14890;SDS011;7537;48.014;11.590;2022-12-11T06:41:39;17.97;;;12.19;;
14890;SDS011;7537;48.014;11.590;2022-12-11T06:47:09;15.37;;;11.39;;
14890;SDS011;7537;48.014;11.590;2022-12-11T06:52:36;16.42;;;11.84;;
14890;SDS011;7537;48.014;11.590;2022-12-11T06:58:04;14.78;;;11.21;;
14890;SDS011;7537;48.014;11.590;2022-12-11T07:03:32;13.96;;;10.18;;
14890;SDS011;7537;48.014;11.590;2022-12-11T07:09:01;14.42;;;11.40;;
14890;SDS011;7537;48.014;11.590;2022-12-11T07:14:30;14.96;;;10.13;;
14890;SDS011;7537;48.014;11.590;2022-12-11T07:19:58;16.69;;;10.84;;
14890;SDS011;7537;48.014;11.590;2022-12-11T07:25:26;18.53;;;12.84;;
14890;SDS011;7537;48.014;11.590;2022-12-11T07:30:57;11.56;;;9.79;;
14890;SDS011;7537;48.014;11.590;2022-12-11T07:36:24;14.41;;;9.37;;
14890;SDS011;7537;48.014;11.590;2022-12-11T07:41:51;14.51;;;10.40;;
14890;SDS011;7537;48.014;11.590;2022-12-11T07:47:20;19.83;;;12.75;;
14890;SDS011;7537;48.014;11.590;2022-12-11T07:52:48;15.66;;;11.65;;
14890;SDS011;7537;48.014;11.590;2022-12-11T07:58:15;17.67;;;11.73;;
14890;SDS011;7537;48.014;11.590;2022-12-11T08:03:43;14.69;;;10.94;;
14890;SDS011;7537;48.014;11.590;2022-12-11T08:09:11;15.60;;;11.61;;
14890;SDS011;7537;48.014;11.590;2022-12-11T08:14:39;17.71;;;12.49;;
14890;SDS011;7537;48.014;11.590;2022-12-11T08:20:09;17.54;;;12.77;;
14890;SDS011;7537;48.014;11.590;2022-12-11T08:25:41;17.24;;;12.23;;
14890;SDS011;7537;48.014;11.590;2022-12-11T08:31:15;17.14;;;12.35;;
14890;SDS011;7537;48.014;11.590;2022-12-11T08:36:43;19.66;;;13.01;;
14890;SDS011;7537;48.014;11.590;2022-12-11T08:42:10;14.49;;;11.39;;
14890;SDS011;7537;48.014;11.590;2022-12-11T08:47:38;19.62;;;12.47;;
14890;SDS011;7537;48.014;11.590;2022-12-11T08:53:07;19.18;;;12.47;;
14890;SDS011;7537;48.014;11.590;2022-12-11T08:58:34;14.43;;;10.99;;
14890;SDS011;7537;48.014;11.590;2022-12-11T09:04:02;15.19;;;11.41;;
14890;SDS011;7537;48.014;11.590;2022-12-11T09:09:29;15.36;;;10.74;;
14890;SDS011;7537;48.014;11.590;2022-12-11T09:14:57;14.41;;;10.21;;
14890;SDS011;7537;48.014;11.590;2022-12-11T09:20:24;13.43;;;9.89;;
14890;SDS011;7537;48.014;11.590;2022-12-11T09:25:53;13.84;;;10.05;;
14890;SDS011;7537;48.014;11.590;2022-12-11T09:31:24;14.90;;;10.71;;
14890;SDS011;7537;48.014;11.590;2022-12-11T09:36:52;14.49;;;10.85;;
14890;SDS011;7537;48.014;11.590;2022-12-11T09:42:20;9.49;;;6.47;;
14890;SDS011;7537;48.014;11.590;2022-12-11T09:47:50;14.02;;;9.79;;
14890;SDS011;7537;48.014;11.590;2022-12-11T09:53:19;14.51;;;10.17;;
14890;SDS011;7537;48.014;11.590;2022-12-11T09:58:56;13.22;;;9.45;;
14890;SDS011;7537;48.014;11.590;2022-12-11T10:04:30;10.70;;;8.46;;
14890;SDS011;7537;48.014;11.590;2022-12-11T10:10:04;12.01;;;9.24;;
14890;SDS011;7537;48.014;11.590;2022-12-11T10:15:36;10.59;;;8.49;;
14890;SDS011;7537;48.014;11.590;2022-12-11T10:21:13;10.89;;;7.62;;
14890;SDS011;7537;48.014;11.590;2022-12-11T10:26:42;8.21;;;6.96;;
14890;SDS011;7537;48.014;11.590;2022-12-11T10:32:16;7.70;;;7.33;;
14890;SDS011;7537;48.014;11.590;2022-12-11T10:37:48;9.47;;;7.16;;
14890;SDS011;7537;48.014;11.590;2022-12-11T10:43:16;10.88;;;7.95;;
14890;SDS011;7537;48.014;11.590;2022-12-11T10:48:45;7.63;;;7.53;;
14890;SDS011;7537;48.014;11.590;2022-12-11T10:54:17;7.76;;;7.19;;
14890;SDS011;7537;48.014;11.590;2022-12-11T10:59:53;9.44;;;7.75;;
14890;SDS011;7537;48.014;11.590;2022-12-11T11:05:27;10.34;;;7.40;;
14890;SDS011;7537;48.014;11.590;2022-12-11T11:10:57;8.98;;;7.52;;
14890;SDS011;7537;48.014;11.590;2022-12-11T11:16:24;7.74;;;7.06;;
14890;SDS011;7537;48.014;11.590;2022-12-11T11:21:54;7.74;;;6.00;;
14890;SDS011;7537;48.014;11.590;2022-12-11T11:27:24;7.40;;;6.39;;
14890;SDS011;7537;48.014;11.590;2022-12-11T11:32:58;7.45;;;5.93;;
14890;SDS011;7537;48.014;11.590;2022-12-11T11:38:27;6.60;;;6.51;;
14890;SDS011;7537;48.014;11.590;2022-12-11T11:43:56;8.34;;;6.39;;
14890;SDS011;7537;48.014;11.590;2022-12-11T11:49:27;9.89;;;7.36;;
14890;SDS011;7537;48.014;11.590;2022-12-11T11:54:59;6.91;;;6.16;;
14890;SDS011;7537;48.014;11.590;2022-12-11T12:00:29;7.91;;;7.44;;
14890;SDS011;7537;48.014;11.590;2022-12-11T12:05:58;8.14;;;6.84;;
14890;SDS011;7537;48.014;11.590;2022-12-11T12:11:30;7.22;;;5.99;;
14890;SDS011;7537;48.014;11.590;2022-12-11T12:17:03;7.91;;;6.67;;
14890;SDS011;7537;48.014;11.590;2022-12-11T12:22:35;8.18;;;6.34;;
14890;SDS011;7537;48.014;11.590;2022-12-11T12:28:11;7.03;;;6.76;;
14890;SDS011;7537;48.014;11.590;2022-12-11T12:33:46;7.79;;;7.16;;
14890;SDS011;7537;48.014;11.590;2022-12-11T12:39:18;5.99;;;5.56;;
14890;SDS011;7537;48.014;11.590;2022-12-11T12:44:48;7.78;;;7.52;;
14890;SDS011;7537;48.014;11.590;2022-12-11T12:50:20;7.19;;;6.69;;
14890;SDS011;7537;48.014;11.590;2022-12-11T12:55:48;7.81;;;6.39;;
14890;SDS011;7537;48.014;11.590;2022-12-11T13:01:17;6.77;;;6.72;;
14890;SDS011;7537;48.014;11.590;2022-12-11T13:06:45;8.33;;;6.93;;
14890;SDS011;7537;48.014;11.590;2022-12-11T13:12:14;8.51;;;6.93;;
14890;SDS011;7537;48.014;11.590;2022-12-11T13:17:41;8.63;;;7.88;;
14890;SDS011;7537;48.014;11.590;2022-12-11T13:23:18;8.88;;;8.04;;
14890;SDS011;7537;48.014;11.590;2022-12-11T13:28:46;9.99;;;8.43;;
14890;SDS011;7537;48.014;11.590;2022-12-11T13:34:22;11.31;;;8.06;;
14890;SDS011;7537;48.014;11.590;2022-12-11T13:39:50;11.16;;;8.64;;
14890;SDS011;7537;48.014;11.590;2022-12-11T13:45:18;9.55;;;8.48;;
14890;SDS011;7537;48.014;11.590;2022-12-11T13:50:49;10.40;;;8.44;;
14890;SDS011;7537;48.014;11.590;2022-12-11T13:56:19;9.36;;;7.75;;
14890;SDS011;7537;48.014;11.590;2022-12-11T14:01:47;8.15;;;7.53;;
14890;SDS011;7537;48.014;11.590;2022-12-11T14:07:15;7.95;;;6.97;;
14890;SDS011;7537;48.014;11.590;2022-12-11T14:12:49;10.91;;;7.31;;
14890;SDS011;7537;48.014;11.590;2022-12-11T14:18:19;8.24;;;7.01;;
14890;SDS011;7537;48.014;11.590;2022-12-11T14:23:51;7.19;;;6.39;;
14890;SDS011;7537;48.014;11.590;2022-12-11T14:29:23;9.12;;;8.05;;
14890;SDS011;7537;48.014;11.590;2022-12-11T14:34:54;7.19;;;7.28;;
14890;SDS011;7537;48.014;11.590;2022-12-11T14:40:23;9.84;;;7.65;;
14890;SDS011;7537;48.014;11.590;2022-12-11T14:46:00;8.81;;;7.04;;
14890;SDS011;7537;48.014;11.590;2022-12-11T14:51:28;9.13;;;7.18;;
14890;SDS011;7537;48.014;11.590;2022-12-11T14:56:56;8.36;;;7.21;;
14890;SDS011;7537;48.014;11.590;2022-12-11T15:02:28;15.06;;;7.49;;
14890;SDS011;7537;48.014;11.590;2022-12-11T15:07:59;8.64;;;7.90;;
14890;SDS011;7537;48.014;11.590;2022-12-11T15:13:26;14.33;;;7.57;;
14890;SDS011;7537;48.014;11.590;2022-12-11T15:18:54;8.46;;;7.18;;
14890;SDS011;7537;48.014;11.590;2022-12-11T15:24:23;8.57;;;6.62;;
14890;SDS011;7537;48.014;11.590;2022-12-11T15:29:51;10.24;;;7.71;;
14890;SDS011;7537;48.014;11.590;2022-12-11T15:35:24;8.79;;;7.57;;
14890;SDS011;7537;48.014;11.590;2022-12-11T15:40:52;11.53;;;8.03;;
14890;SDS011;7537;48.014;11.590;2022-12-11T15:46:20;10.36;;;7.63;;
14890;SDS011;7537;48.014;11.590;2022-12-11T15:51:47;9.80;;;7.06;;
14890;SDS011;7537;48.014;11.590;2022-12-11T15:57:16;10.04;;;8.46;;
14890;SDS011;7537;48.014;11.590;2022-12-11T16:02:45;9.76;;;7.81;;
14890;SDS011;7537;48.014;11.590;2022-12-11T16:08:14;17.89;;;7.68;;
14890;SDS011;7537;48.014;11.590;2022-12-11T16:13:42;8.27;;;7.52;;
14890;SDS011;7537;48.014;11.590;2022-12-11T16:19:09;11.44;;;7.75;;
14890;SDS011;7537;48.014;11.590;2022-12-11T16:24:37;10.76;;;8.11;;
14890;SDS011;7537;48.014;11.590;2022-12-11T16:30:06;8.51;;;7.27;;
14890;SDS011;7537;48.014;11.590;2022-12-11T16:35:37;8.66;;;7.39;;
14890;SDS011;7537;48.014;11.590;2022-12-11T16:41:05;12.99;;;9.15;;
14890;SDS011;7537;48.014;11.590;2022-12-11T16:46:33;10.13;;;8.29;;
14890;SDS011;7537;48.014;11.590;2022-12-11T16:52:00;11.58;;;8.63;;
14890;SDS011;7537;48.014;11.590;2022-12-11T16:57:28;11.38;;;9.04;;
14890;SDS011;7537;48.014;11.590;2022-12-11T17:02:55;12.71;;;9.14;;
14890;SDS011;7537;48.014;11.590;2022-12-11T17:08:24;11.23;;;8.66;;
14890;SDS011;7537;48.014;11.590;2022-12-11T17:13:53;11.83;;;7.24;;
14890;SDS011;7537;48.014;11.590;2022-12-11T17:19:21;9.42;;;8.07;;
14890;SDS011;7537;48.014;11.590;2022-12-11T17:24:48;8.08;;;7.01;;
14890;SDS011;7537;48.014;11.590;2022-12-11T17:30:16;12.57;;;9.31;;
14890;SDS011;7537;48.014;11.590;2022-12-11T17:35:52;15.24;;;8.40;;
14890;SDS011;7537;48.014;11.590;2022-12-11T17:41:19;14.08;;;9.74;;
14890;SDS011;7537;48.014;11.590;2022-12-11T17:46:48;13.86;;;10.08;;
14890;SDS011;7537;48.014;11.590;2022-12-11T17:52:15;13.43;;;9.93;;
14890;SDS011;7537;48.014;11.590;2022-12-11T17:57:43;13.83;;;9.02;;
14890;SDS011;7537;48.014;11.590;2022-12-11T18:03:10;10.71;;;8.00;;
14890;SDS011;7537;48.014;11.590;2022-12-11T18:08:38;10.91;;;8.43;;
14890;SDS011;7537;48.014;11.590;2022-12-11T18:14:05;11.89;;;8.07;;
14890;SDS011;7537;48.014;11.590;2022-12-11T18:19:34;11.54;;;8.14;;
14890;SDS011;7537;48.014;11.590;2022-12-11T18:25:02;10.24;;;7.41;;
14890;SDS011;7537;48.014;11.590;2022-12-11T18:30:29;11.69;;;8.64;;
14890;SDS011;7537;48.014;11.590;2022-12-11T18:36:00;9.71;;;7.31;;
14890;SDS011;7537;48.014;11.590;2022-12-11T18:41:27;10.81;;;7.58;;
14890;SDS011;7537;48.014;11.590;2022-12-11T18:46:55;10.35;;;7.97;;
14890;SDS011;7537;48.014;11.590;2022-12-11T18:52:23;9.95;;;6.65;;
14890;SDS011;7537;48.014;11.590;2022-12-11T18:57:51;10.62;;;7.44;;
14890;SDS011;7537;48.014;11.590;2022-12-11T19:03:19;11.66;;;7.96;;
14890;SDS011;7537;48.014;11.590;2022-12-11T19:08:46;11.25;;;8.52;;
14890;SDS011;7537;48.014;11.590;2022-12-11T19:14:13;8.94;;;6.91;;
14890;SDS011;7537;48.014;11.590;2022-12-11T19:19:41;9.57;;;6.89;;
14890;SDS011;7537;48.014;11.590;2022-12-11T19:25:10;9.53;;;6.96;;
14890;SDS011;7537;48.014;11.590;2022-12-11T19:30:41;8.03;;;6.36;;
14890;SDS011;7537;48.014;11.590;2022-12-11T19:36:13;8.90;;;6.54;;
14890;SDS011;7537;48.014;11.590;2022-12-11T19:41:41;13.31;;;7.55;;
14890;SDS011;7537;48.014;11.590;2022-12-11T19:47:08;10.26;;;7.66;;
14890;SDS011;7537;48.014;11.590;2022-12-11T19:52:35;12.14;;;6.24;;
14890;SDS011;7537;48.014;11.590;2022-12-11T19:58:04;13.26;;;8.38;;
14890;SDS011;7537;48.014;11.590;2022-12-11T20:03:31;13.84;;;7.81;;
14890;SDS011;7537;48.014;11.590;2022-12-11T20:08:59;7.84;;;7.09;;
14890;SDS011;7537;48.014;11.590;2022-12-11T20:14:28;9.34;;;6.27;;
14890;SDS011;7537;48.014;11.590;2022-12-11T20:19:55;11.37;;;6.57;;
14890;SDS011;7537;48.014;11.590;2022-12-11T20:25:22;9.10;;;6.57;;
14890;SDS011;7537;48.014;11.590;2022-12-11T20:30:51;10.77;;;8.10;;
14890;SDS011;7537;48.014;11.590;2022-12-11T20:36:27;11.83;;;7.69;;
14890;SDS011;7537;48.014;11.590;2022-12-11T20:41:54;9.86;;;7.97;;
14890;SDS011;7537;48.014;11.590;2022-12-11T20:47:21;11.21;;;7.34;;
14890;SDS011;7537;48.014;11.590;2022-12-11T20:52:49;10.54;;;7.06;;
14890;SDS011;7537;48.014;11.590;2022-12-11T20:58:16;8.79;;;7.11;;
14890;SDS011;7537;48.014;11.590;2022-12-11T21:03:45;12.74;;;6.91;;
14890;SDS011;7537;48.014;11.590;2022-12-11T21:09:13;8.10;;;6.89;;
14890;SDS011;7537;48.014;11.590;2022-12-11T21:14:40;11.41;;;7.91;;
14890;SDS011;7537;48.014;11.590;2022-12-11T21:20:08;9.49;;;7.47;;
14890;SDS011;7537;48.014;11.590;2022-12-11T21:25:37;10.96;;;7.75;;
14890;SDS011;7537;48.014;11.590;2022-12-11T21:31:06;22.99;;;8.27;;
14890;SDS011;7537;48.014;11.590;2022-12-11T21:36:38;10.04;;;7.57;;
14890;SDS011;7537;48.014;11.590;2022-12-11T21:42:06;11.62;;;7.96;;
14890;SDS011;7537;48.014;11.590;2022-12-11T21:47:33;12.47;;;8.64;;
14890;SDS011;7537;48.014;11.590;2022-12-11T21:53:00;12.24;;;7.71;;
14890;SDS011;7537;48.014;11.590;2022-12-11T21:58:27;11.41;;;7.63;;
14890;SDS011;7537;48.014;11.590;2022-12-11T22:03:55;10.79;;;8.08;;
14890;SDS011;7537;48.014;11.590;2022-12-11T22:09:24;9.69;;;6.53;;
14890;SDS011;7537;48.014;11.590;2022-12-11T22:14:52;12.18;;;7.69;;
14890;SDS011;7537;48.014;11.590;2022-12-11T22:20:19;11.93;;;9.25;;
14890;SDS011;7537;48.014;11.590;2022-12-11T22:25:46;11.51;;;8.00;;
14890;SDS011;7537;48.014;11.590;2022-12-11T22:31:14;12.44;;;9.03;;
14890;SDS011;7537;48.014;11.590;2022-12-11T22:36:45;15.52;;;10.79;;
14890;SDS011;7537;48.014;11.590;2022-12-11T22:42:13;15.41;;;10.42;;
14890;SDS011;7537;48.014;11.590;2022-12-11T22:47:42;15.19;;;10.67;;
14890;SDS011;7537;48.014;11.590;2022-12-11T22:53:10;17.84;;;12.29;;
14890;SDS011;7537;48.014;11.590;2022-12-11T22:58:37;14.34;;;10.43;;
14890;SDS011;7537;48.014;11.590;2022-12-11T23:04:04;15.44;;;10.57;;
14890;SDS011;7537;48.014;11.590;2022-12-11T23:09:34;15.61;;;10.74;;
14890;SDS011;7537;48.014;11.590;2022-12-11T23:15:02;14.61;;;11.35;;
14890;SDS011;7537;48.014;11.590;2022-12-11T23:20:30;19.09;;;11.69;;
14890;SDS011;7537;48.014;11.590;2022-12-11T23:25:59;13.03;;;10.51;;
14890;SDS011;7537;48.014;11.590;2022-12-11T23:31:26;26.34;;;12.07;;
14890;SDS011;7537;48.014;11.590;2022-12-11T23:36:58;22.65;;;11.91;;
14890;SDS011;7537;48.014;11.590;2022-12-11T23:42:26;13.62;;;10.33;;
14890;SDS011;7537;48.014;11.590;2022-12-11T23:47:53;14.83;;;11.29;;
14890;SDS011;7537;48.014;11.590;2022-12-11T23:53:24;14.06;;;10.59;;
14890;SDS011;7537;48.014;11.590;2022-12-11T23:58:53;15.80;;;11.11;;
